createdAt,value
2022-11-13T00:03:05.593Z,9.00
2022-11-13T00:06:03.857Z,9.00
2022-11-13T00:08:54.131Z,8.90
2022-11-13T00:11:42.408Z,9.00
2022-11-13T00:14:28.228Z,8.90
2022-11-13T00:17:19.345Z,8.80
2022-11-13T00:20:05.716Z,8.90
2022-11-13T00:22:51.887Z,8.90
2022-11-13T00:25:37.933Z,8.90
2022-11-13T00:28:23.649Z,8.90
2022-11-13T00:31:11.266Z,8.90
2022-11-13T00:34:19.569Z,8.90
2022-11-13T00:37:05.909Z,8.80
2022-11-13T00:39:59.603Z,8.90
2022-11-13T00:42:48.385Z,8.90
2022-11-13T00:45:34.400Z,8.90
2022-11-13T00:48:21.032Z,8.90
2022-11-13T00:51:07.269Z,8.90
2022-11-13T00:53:56.041Z,8.90
2022-11-13T00:56:44.669Z,8.90
2022-11-13T00:59:30.326Z,8.90
2022-11-13T01:02:16.178Z,8.90
2022-11-13T01:05:02.235Z,8.90
2022-11-13T01:07:47.757Z,8.80
2022-11-13T01:10:42.339Z,8.80
2022-11-13T01:13:28.155Z,8.90
2022-11-13T01:16:15.545Z,8.90
2022-11-13T01:19:01.462Z,8.90
2022-11-13T01:21:52.063Z,8.90
2022-11-13T01:24:37.991Z,8.90
2022-11-13T01:27:26.540Z,8.90
2022-11-13T01:30:12.374Z,8.90
2022-11-13T01:33:05.715Z,8.80
2022-11-13T01:35:51.512Z,8.90
2022-11-13T01:38:37.896Z,8.90
2022-11-13T01:41:25.764Z,9.00
2022-11-13T01:44:14.588Z,8.90
2022-11-13T01:47:03.116Z,8.80
2022-11-13T01:49:52.585Z,8.90
2022-11-13T01:52:42.468Z,8.90
2022-11-13T01:55:29.126Z,8.80
2022-11-13T01:58:17.371Z,8.80
2022-11-13T02:01:03.412Z,8.90
2022-11-13T02:03:49.104Z,8.80
2022-11-13T02:06:48.427Z,8.80
2022-11-13T02:09:42.796Z,8.80
2022-11-13T02:12:34.788Z,8.80
2022-11-13T02:15:26.464Z,8.80
2022-11-13T02:18:13.729Z,8.80
2022-11-13T02:21:13.417Z,8.70
2022-11-13T02:24:22.545Z,8.80
2022-11-13T02:27:34.837Z,8.70
2022-11-13T02:30:27.669Z,8.70
2022-11-13T02:33:28.396Z,8.70
2022-11-13T02:36:20.071Z,8.70
2022-11-13T02:39:09.541Z,8.70
2022-11-13T02:41:55.260Z,8.70
2022-11-13T02:44:41.266Z,8.70
2022-11-13T02:47:27.899Z,8.70
2022-11-13T02:50:14.476Z,8.70
2022-11-13T02:53:00.575Z,8.70
2022-11-13T02:55:46.402Z,8.70
2022-11-13T02:58:34.837Z,8.60
2022-11-13T03:01:21.009Z,8.60
2022-11-13T03:04:07.596Z,8.60
2022-11-13T03:06:55.873Z,8.60
2022-11-13T03:09:47.269Z,8.60
2022-11-13T03:12:35.662Z,8.50
2022-11-13T03:15:23.753Z,8.50
2022-11-13T03:18:12.503Z,8.50
2022-11-13T03:20:58.718Z,8.60
2022-11-13T03:23:45.349Z,8.60
2022-11-13T03:26:31.251Z,8.60
2022-11-13T03:29:17.066Z,8.70
2022-11-13T03:32:05.449Z,8.60
2022-11-13T03:34:54.010Z,8.50
2022-11-13T03:37:42.150Z,8.50
2022-11-13T03:40:28.126Z,8.60
2022-11-13T03:43:14.127Z,8.60
2022-11-13T03:45:59.998Z,8.70
2022-11-13T03:48:45.867Z,8.60
2022-11-13T03:51:34.272Z,8.60
2022-11-13T03:54:20.466Z,8.60
2022-11-13T03:57:06.852Z,8.70
2022-11-13T03:59:55.471Z,8.70
2022-11-13T04:02:41.488Z,8.70
2022-11-13T04:05:27.403Z,8.60
2022-11-13T04:08:13.252Z,8.60
2022-11-13T04:11:10.009Z,8.60
2022-11-13T04:13:55.898Z,8.60
2022-11-13T04:16:42.230Z,8.60
2022-11-13T04:19:30.841Z,8.60
2022-11-13T04:22:16.439Z,8.70
2022-11-13T04:25:02.506Z,8.50
2022-11-13T04:27:52.648Z,8.50
2022-11-13T04:30:42.812Z,8.50
2022-11-13T04:33:31.171Z,8.50
2022-11-13T04:36:16.999Z,8.40
2022-11-13T04:39:03.454Z,8.40
2022-11-13T04:42:08.369Z,8.40
2022-11-13T04:44:54.498Z,8.40
2022-11-13T04:47:40.592Z,8.50
2022-11-13T04:50:28.639Z,8.50
2022-11-13T04:53:16.559Z,8.40
2022-11-13T04:56:05.545Z,8.40
2022-11-13T04:58:56.249Z,8.50
2022-11-13T05:01:44.733Z,8.50
2022-11-13T05:04:30.430Z,8.60
2022-11-13T05:07:16.568Z,8.60
2022-11-13T05:10:02.853Z,8.70
2022-11-13T05:12:51.147Z,8.70
2022-11-13T05:15:37.241Z,8.70
2022-11-13T05:18:25.903Z,8.70
2022-11-13T05:21:11.941Z,8.70
2022-11-13T05:24:00.212Z,8.70
2022-11-13T05:26:48.544Z,8.70
2022-11-13T05:29:34.576Z,8.70
2022-11-13T05:32:20.388Z,8.80
2022-11-13T05:35:06.424Z,8.60
2022-11-13T05:37:51.830Z,8.70
2022-11-13T05:40:40.080Z,8.70
2022-11-13T05:43:25.847Z,8.70
2022-11-13T05:46:23.496Z,8.70
2022-11-13T05:49:13.312Z,8.80
2022-11-13T05:52:03.821Z,8.70
2022-11-13T05:54:52.061Z,8.70
2022-11-13T05:57:37.849Z,8.80
2022-11-13T06:00:23.727Z,8.80
2022-11-13T06:03:09.548Z,8.70
2022-11-13T06:05:55.102Z,8.70
2022-11-13T06:08:42.117Z,8.70
2022-11-13T06:11:29.954Z,8.70
2022-11-13T06:14:16.076Z,8.80
2022-11-13T06:17:02.522Z,8.70
2022-11-13T06:19:48.377Z,8.70
2022-11-13T06:22:36.607Z,8.80
2022-11-13T06:25:22.528Z,8.80
2022-11-13T06:28:10.815Z,8.80
2022-11-13T06:31:04.428Z,8.90
2022-11-13T06:33:50.366Z,8.80
2022-11-13T06:36:37.972Z,8.80
2022-11-13T06:39:23.884Z,8.80
2022-11-13T06:42:09.945Z,8.80
2022-11-13T06:44:58.075Z,8.80
2022-11-13T06:47:46.513Z,8.80
2022-11-13T06:50:32.152Z,8.80
2022-11-13T06:53:18.430Z,8.70
2022-11-13T06:56:09.115Z,8.70
2022-11-13T06:58:56.408Z,8.70
2022-11-13T07:01:42.480Z,8.70
2022-11-13T07:04:28.471Z,8.80
2022-11-13T07:07:14.342Z,8.80
2022-11-13T07:10:02.466Z,8.80
2022-11-13T07:12:53.582Z,8.80
2022-11-13T07:15:40.639Z,8.90
2022-11-13T07:18:26.624Z,9.00
2022-11-13T07:21:13.424Z,8.90
2022-11-13T07:24:01.954Z,8.90
2022-11-13T07:26:47.790Z,8.90
2022-11-13T07:29:36.575Z,9.00
2022-11-13T07:32:24.846Z,9.00
2022-11-13T07:35:10.781Z,9.00
2022-11-13T07:37:59.503Z,9.00
2022-11-13T07:40:44.889Z,9.00
2022-11-13T07:43:33.158Z,9.00
2022-11-13T07:46:21.747Z,8.90
2022-11-13T07:49:07.513Z,8.90
2022-11-13T07:51:53.283Z,8.90
2022-11-13T07:54:39.172Z,8.80
2022-11-13T07:57:25.312Z,8.90
2022-11-13T08:00:11.977Z,8.90
2022-11-13T08:03:06.789Z,8.80
2022-11-13T08:05:54.413Z,8.80
2022-11-13T08:08:42.397Z,8.90
2022-11-13T08:11:28.382Z,8.90
2022-11-13T08:14:20.135Z,8.90
2022-11-13T08:17:05.951Z,8.90
2022-11-13T08:19:54.445Z,9.00
2022-11-13T08:22:40.161Z,9.00
2022-11-13T08:25:26.319Z,9.00
2022-11-13T08:28:13.496Z,9.00
2022-11-13T08:31:01.589Z,9.00
2022-11-13T08:33:49.941Z,9.00
2022-11-13T08:36:37.884Z,9.00
2022-11-13T08:39:23.673Z,9.00
2022-11-13T08:42:09.965Z,8.90
2022-11-13T08:44:56.101Z,8.90
2022-11-13T08:47:41.817Z,8.90
2022-11-13T08:50:29.576Z,8.90
2022-11-13T08:53:17.185Z,9.00
2022-11-13T08:56:03.383Z,9.00
2022-11-13T08:58:49.039Z,9.10
2022-11-13T09:01:37.588Z,9.10
2022-11-13T09:04:23.437Z,9.10
2022-11-13T09:07:09.679Z,8.90
2022-11-13T09:09:57.764Z,8.90
2022-11-13T09:12:46.009Z,8.90
2022-11-13T09:15:35.125Z,8.70
2022-11-13T09:18:23.658Z,8.70
2022-11-13T09:21:11.898Z,8.70
2022-11-13T09:24:00.019Z,8.60
2022-11-13T09:26:46.444Z,8.70
2022-11-13T09:29:36.031Z,8.70
2022-11-13T09:32:21.827Z,8.80
2022-11-13T09:35:08.386Z,8.80
2022-11-13T09:37:54.732Z,8.70
2022-11-13T09:40:58.443Z,8.70
2022-11-13T09:43:59.242Z,8.70
2022-11-13T09:46:54.481Z,8.80
2022-11-13T09:49:54.510Z,8.70
2022-11-13T09:52:42.986Z,8.70
2022-11-13T09:55:39.510Z,8.70
2022-11-13T09:58:45.723Z,8.60
2022-11-13T10:01:52.116Z,8.70
2022-11-13T10:05:14.007Z,8.70
2022-11-13T10:08:21.626Z,8.80
2022-11-13T10:11:13.090Z,8.90
2022-11-13T10:14:01.911Z,8.90
2022-11-13T10:16:55.908Z,8.90
2022-11-13T10:19:58.889Z,8.90
2022-11-13T10:22:51.459Z,8.80
2022-11-13T10:25:43.042Z,8.70
2022-11-13T10:28:49.365Z,8.70
2022-11-13T10:31:52.511Z,8.70
2022-11-13T10:34:43.326Z,8.70
2022-11-13T10:37:57.108Z,8.60
2022-11-13T10:40:42.920Z,8.60
2022-11-13T10:43:28.885Z,8.60
2022-11-13T10:46:24.422Z,8.60
2022-11-13T10:49:26.076Z,8.70
2022-11-13T10:52:19.889Z,8.70
2022-11-13T10:55:43.101Z,8.70
2022-11-13T10:58:29.499Z,8.70
2022-11-13T11:01:25.020Z,8.50
2022-11-13T11:04:21.456Z,8.60
2022-11-13T11:07:22.685Z,8.60
2022-11-13T11:10:34.999Z,8.60
2022-11-13T11:13:23.454Z,8.60
2022-11-13T11:16:20.126Z,8.60
2022-11-13T11:19:11.857Z,8.60
2022-11-13T11:22:14.044Z,8.60
2022-11-13T11:25:31.833Z,8.60
2022-11-13T11:28:29.612Z,8.60
2022-11-13T11:31:45.289Z,8.70
2022-11-13T11:34:35.813Z,8.60
2022-11-13T11:37:31.073Z,8.50
2022-11-13T11:40:26.441Z,8.50
2022-11-13T11:43:54.471Z,8.60
2022-11-13T11:46:44.117Z,8.60
2022-11-13T11:49:32.682Z,8.50
2022-11-13T11:52:29.170Z,8.40
2022-11-13T11:55:42.658Z,8.40
2022-11-13T11:58:57.234Z,8.50
2022-11-13T12:02:17.343Z,8.40
2022-11-13T12:05:25.526Z,8.40
2022-11-13T12:08:11.407Z,8.40
2022-11-13T12:11:13.074Z,8.50
2022-11-13T12:14:30.480Z,8.60
2022-11-13T12:17:17.309Z,8.70
2022-11-13T12:20:15.601Z,8.70
2022-11-13T12:23:53.937Z,8.70
2022-11-13T12:27:04.262Z,8.70
2022-11-13T12:30:14.752Z,8.70
2022-11-13T12:33:16.282Z,8.80
2022-11-13T12:36:03.977Z,8.70
2022-11-13T12:39:16.038Z,8.70
2022-11-13T12:42:28.407Z,8.60
2022-11-13T12:45:25.705Z,8.60
2022-11-13T12:48:14.374Z,8.60
2022-11-13T12:51:05.856Z,8.70
2022-11-13T12:53:54.294Z,8.70
2022-11-13T12:56:40.465Z,8.70
2022-11-13T12:59:34.227Z,8.70
2022-11-13T13:02:29.389Z,8.70
2022-11-13T13:05:21.401Z,8.60
2022-11-13T13:08:19.573Z,8.70
2022-11-13T13:11:24.053Z,8.70
2022-11-13T13:14:30.827Z,8.70
2022-11-13T13:17:24.381Z,8.70
2022-11-13T13:20:16.238Z,8.70
2022-11-13T13:23:08.767Z,8.70
2022-11-13T13:26:16.368Z,8.60
2022-11-13T13:29:14.456Z,8.50
2022-11-13T13:32:28.006Z,8.50
2022-11-13T13:35:42.508Z,8.50
2022-11-13T13:38:52.702Z,8.50
2022-11-13T13:42:12.243Z,8.50
2022-11-13T13:45:22.358Z,8.50
2022-11-13T13:48:16.957Z,8.50
2022-11-13T13:51:16.677Z,8.50
2022-11-13T13:54:10.001Z,8.50
2022-11-13T13:56:58.141Z,8.50
2022-11-13T13:59:45.186Z,8.40
2022-11-13T14:02:31.137Z,8.30
2022-11-13T14:05:31.117Z,8.30
2022-11-13T14:08:21.653Z,8.20
2022-11-13T14:11:19.510Z,8.10
2022-11-13T14:14:24.661Z,8.10
2022-11-13T14:17:12.665Z,8.00
2022-11-13T14:20:01.480Z,8.00
2022-11-13T14:22:55.356Z,8.00
2022-11-13T14:25:43.273Z,8.10
2022-11-13T14:28:32.742Z,8.10
2022-11-13T14:31:19.268Z,8.10
2022-11-13T14:34:18.158Z,8.10
2022-11-13T14:37:22.402Z,8.00
2022-11-13T14:40:31.172Z,8.00
2022-11-13T14:43:26.772Z,8.00
2022-11-13T14:46:34.553Z,7.90
2022-11-13T14:49:53.073Z,7.90
2022-11-13T14:52:38.892Z,7.90
2022-11-13T14:55:35.737Z,7.90
2022-11-13T14:58:37.629Z,7.80
2022-11-13T15:01:25.082Z,7.80
2022-11-13T15:04:10.985Z,7.80
2022-11-13T15:07:02.158Z,7.80
2022-11-13T15:09:50.443Z,7.80
2022-11-13T15:12:36.253Z,7.80
2022-11-13T15:15:27.648Z,7.70
2022-11-13T15:18:20.630Z,7.70
2022-11-13T15:21:06.739Z,7.70
2022-11-13T15:23:53.018Z,7.70
2022-11-13T15:26:42.656Z,7.70
2022-11-13T15:29:31.360Z,7.80
2022-11-13T15:32:22.282Z,7.80
2022-11-13T15:35:15.516Z,7.80
2022-11-13T15:38:01.765Z,7.90
2022-11-13T15:40:48.338Z,7.90
2022-11-13T15:43:36.487Z,7.90
2022-11-13T15:46:24.457Z,7.90
2022-11-13T15:49:12.897Z,7.90
2022-11-13T15:51:58.994Z,7.80
2022-11-13T15:54:45.004Z,7.80
2022-11-13T15:57:37.734Z,7.80
2022-11-13T16:00:27.781Z,7.80
2022-11-13T16:03:15.817Z,7.80
2022-11-13T16:06:04.371Z,7.80
2022-11-13T16:08:50.856Z,7.80
2022-11-13T16:11:36.634Z,7.80
2022-11-13T16:14:25.035Z,7.80
2022-11-13T16:17:20.361Z,7.80
2022-11-13T16:20:10.319Z,7.70
2022-11-13T16:22:56.432Z,7.70
2022-11-13T16:25:42.080Z,7.70
2022-11-13T16:28:29.395Z,7.60
2022-11-13T16:31:17.153Z,7.70
2022-11-13T16:34:03.041Z,7.70
2022-11-13T16:36:51.793Z,7.70
2022-11-13T16:39:38.336Z,7.70
2022-11-13T16:42:29.777Z,7.80
2022-11-13T16:45:20.604Z,7.80
2022-11-13T16:48:12.121Z,7.80
2022-11-13T16:50:58.051Z,7.80
2022-11-13T16:53:44.365Z,7.80
2022-11-13T16:56:30.750Z,7.90
2022-11-13T16:59:16.568Z,7.90
2022-11-13T17:02:10.493Z,8.00
2022-11-13T17:04:56.750Z,7.90
2022-11-13T17:07:45.485Z,7.90
2022-11-13T17:10:33.043Z,8.00
2022-11-13T17:13:19.411Z,7.90
2022-11-13T17:16:07.760Z,7.90
2022-11-13T17:18:58.666Z,7.90
2022-11-13T17:21:44.773Z,7.90
2022-11-13T17:24:33.170Z,8.00
2022-11-13T17:27:19.281Z,8.00
2022-11-13T17:30:05.904Z,8.00
2022-11-13T17:32:52.113Z,8.00
2022-11-13T17:35:38.311Z,8.00
2022-11-13T17:38:24.343Z,7.90
2022-11-13T17:41:13.047Z,7.90
2022-11-13T17:44:01.615Z,8.00
2022-11-13T17:46:48.266Z,8.00
2022-11-13T17:49:34.508Z,8.00
2022-11-13T17:52:25.509Z,8.00
2022-11-13T17:55:14.074Z,8.00
2022-11-13T17:58:01.250Z,8.00
2022-11-13T18:00:47.203Z,7.90
2022-11-13T18:03:34.370Z,7.90
2022-11-13T18:06:20.452Z,7.90
2022-11-13T18:09:06.564Z,8.00
2022-11-13T18:11:52.958Z,8.00
2022-11-13T18:14:38.931Z,8.00
2022-11-13T18:17:25.308Z,8.00
2022-11-13T18:20:11.484Z,8.00
2022-11-13T18:23:00.261Z,8.10
2022-11-13T18:25:46.488Z,8.10
2022-11-13T18:28:32.245Z,8.00
2022-11-13T18:31:23.798Z,8.00
2022-11-13T18:34:12.659Z,8.00
2022-11-13T18:37:00.885Z,8.10
2022-11-13T18:39:46.884Z,8.20
2022-11-13T18:42:33.211Z,8.30
2022-11-13T18:45:21.904Z,8.40
2022-11-13T18:48:07.665Z,8.40
2022-11-13T18:51:03.850Z,8.40
2022-11-13T18:53:51.553Z,8.30
2022-11-13T18:56:40.683Z,8.30
2022-11-13T18:59:29.335Z,8.30
2022-11-13T19:02:15.454Z,8.20
2022-11-13T19:05:06.239Z,8.20
2022-11-13T19:07:52.399Z,8.20
2022-11-13T19:10:41.085Z,8.10
2022-11-13T19:13:27.369Z,8.10
2022-11-13T19:16:16.343Z,8.10
2022-11-13T19:19:15.447Z,8.10
2022-11-13T19:22:01.423Z,8.20
2022-11-13T19:24:47.756Z,8.20
2022-11-13T19:27:33.670Z,8.20
2022-11-13T19:30:22.133Z,8.20
2022-11-13T19:33:08.252Z,8.30
2022-11-13T19:35:55.744Z,8.30
2022-11-13T19:38:42.756Z,8.30
2022-11-13T19:41:29.985Z,8.40
2022-11-13T19:44:18.872Z,8.40
2022-11-13T19:47:05.085Z,8.50
2022-11-13T19:49:50.992Z,8.50
2022-11-13T19:52:39.330Z,8.60
2022-11-13T19:55:25.137Z,8.70
2022-11-13T19:58:11.067Z,8.50
2022-11-13T20:00:59.704Z,8.50
2022-11-13T20:03:46.193Z,8.40
2022-11-13T20:06:33.305Z,8.40
2022-11-13T20:09:19.353Z,8.30
2022-11-13T20:12:07.966Z,8.30
2022-11-13T20:14:54.005Z,8.30
2022-11-13T20:17:40.045Z,8.20
2022-11-13T20:20:28.522Z,8.20
2022-11-13T20:23:16.454Z,8.20
2022-11-13T20:26:07.703Z,8.20
2022-11-13T20:28:53.577Z,8.20
2022-11-13T20:31:44.332Z,8.30
2022-11-13T20:34:32.847Z,8.30
2022-11-13T20:37:18.601Z,8.30
2022-11-13T20:40:08.083Z,8.30
2022-11-13T20:42:53.812Z,8.20
2022-11-13T20:45:40.127Z,8.20
2022-11-13T20:48:25.899Z,8.20
2022-11-13T20:51:21.305Z,8.10
2022-11-13T20:54:07.468Z,8.10
2022-11-13T20:56:53.494Z,8.10
2022-11-13T20:59:42.123Z,8.00
2022-11-13T21:02:30.229Z,8.00
2022-11-13T21:05:18.851Z,8.00
2022-11-13T21:08:05.032Z,8.10
2022-11-13T21:10:51.055Z,8.10
2022-11-13T21:13:37.469Z,8.10
2022-11-13T21:16:24.198Z,8.10
2022-11-13T21:19:15.099Z,8.10
2022-11-13T21:22:01.589Z,8.10
2022-11-13T21:24:50.366Z,8.10
2022-11-13T21:27:39.034Z,8.10
2022-11-13T21:30:27.371Z,8.10
2022-11-13T21:33:13.647Z,8.10
2022-11-13T21:36:07.145Z,8.00
2022-11-13T21:38:54.810Z,8.00
2022-11-13T21:41:43.852Z,8.00
2022-11-13T21:44:30.000Z,8.00
2022-11-13T21:47:18.679Z,8.00
2022-11-13T21:50:05.706Z,8.00
2022-11-13T21:52:52.026Z,8.00
2022-11-13T21:55:37.985Z,8.00
2022-11-13T21:58:34.786Z,8.00
2022-11-13T22:01:23.874Z,8.00
2022-11-13T22:04:09.947Z,8.00
2022-11-13T22:06:56.271Z,8.00
2022-11-13T22:09:46.249Z,8.00
2022-11-13T22:12:34.794Z,8.00
2022-11-13T22:15:20.952Z,8.10
2022-11-13T22:18:09.338Z,8.00
2022-11-13T22:21:03.708Z,8.00
2022-11-13T22:23:50.055Z,8.00
2022-11-13T22:26:40.880Z,8.00
2022-11-13T22:29:27.042Z,8.00
2022-11-13T22:32:12.785Z,8.00
2022-11-13T22:34:58.447Z,8.00
2022-11-13T22:37:47.037Z,8.00
2022-11-13T22:40:33.109Z,8.00
2022-11-13T22:43:18.995Z,8.00
2022-11-13T22:46:10.008Z,8.00
2022-11-13T22:48:57.981Z,8.00
2022-11-13T22:51:44.065Z,8.00
2022-11-13T22:54:32.510Z,7.90
2022-11-13T22:57:21.373Z,8.00
2022-11-13T23:00:09.431Z,8.00
2022-11-13T23:02:55.025Z,8.00
2022-11-13T23:05:41.203Z,8.00
2022-11-13T23:08:27.641Z,8.00
2022-11-13T23:11:23.941Z,8.00
2022-11-13T23:14:15.747Z,8.00
2022-11-13T23:17:01.454Z,8.00
2022-11-13T23:19:47.786Z,8.00
2022-11-13T23:22:34.768Z,8.00
2022-11-13T23:25:23.022Z,8.00
2022-11-13T23:28:12.062Z,8.00
2022-11-13T23:31:00.204Z,8.00
2022-11-13T23:33:46.414Z,8.00
2022-11-13T23:36:32.566Z,8.00
2022-11-13T23:39:19.291Z,7.90
2022-11-13T23:42:07.640Z,7.90
2022-11-13T23:44:54.023Z,7.90
2022-11-13T23:47:40.089Z,8.00
2022-11-13T23:50:29.114Z,7.90
2022-11-13T23:53:15.045Z,7.90
2022-11-13T23:56:01.513Z,7.90
2022-11-13T23:58:47.810Z,7.90
